Minerva Astra — 9HDW7 — position and weather

sailwx.info

Track history (hours):
 
Tides and Currents Weather Stations Pressure Air Temp Water Temp Dewpoint Dewpoint Depression Visibility Wind Speed Wind Dir Waves Ship Positions

Minerva Astra

Last reported at 2017-Oct-18 09:29 UTC. Time now 2017-Oct-18 09:32 UTC.
Position N 38°24' W 074°28'.

Length 248 m; draft 12 m.

Type: Ship (hazmat cat A). MMSI: 256703000.

Date/timePositionNaut miles runAvg speedWind from/ knotsBaromVisibWave heightAir tempDewpointWater temp
2017-Oct-18 09:29N 38°24' W 074°28'1 2.0
2017-Oct-18 09:01N 38°23' W 074°28'2 3.7
2017-Oct-18 08:30N 38°21' W 074°27'1 2.3
2017-Oct-18 08:01N 38°20' W 074°27'1 1.1
2017-Oct-18 06:56N 38°21' W 074°26'1 0.9
2017-Oct-18 05:55N 38°22' W 074°25'20 1.5
2017-Oct-17 16:35N 38°42' W 074°24'0 0.5
2017-Oct-17 16:05N 38°42' W 074°24'1 2.5
2017-Oct-17 15:50N 38°41' W 074°24'3 5.8
2017-Oct-17 15:19N 38°39' W 074°27'5 9.8
2017-Oct-17 14:49N 38°36' W 074°31'3 9.7
2017-Oct-17 14:30N 38°33' W 074°34'3 0.1
2017-Oct-16 04:31N 38°31' W 074°37'0 0.0
2017-Oct-16 03:06N 38°31' W 074°37'0 0.0
2017-Oct-16 02:12N 38°31' W 074°36'0 0.0
2017-Oct-15 16:42N 38°31' W 074°37'0 0.1
2017-Oct-15 15:36N 38°31' W 074°37'0 0.2
2017-Oct-15 15:12N 38°31' W 074°37'0 0.1
2017-Oct-15 14:42N 38°31' W 074°37'0 0.0
2017-Oct-15 14:00N 38°31' W 074°37'0 0.1
2017-Oct-15 13:30N 38°31' W 074°37'0 0.0
2017-Oct-15 12:48N 38°31' W 074°37'0 0.2
2017-Oct-15 12:30N 38°31' W 074°37'0 0.0
2017-Oct-15 06:15N 38°31' W 074°37'0 0.0
2017-Oct-14 21:21N 38°31' W 074°37'0 0.0
2017-Oct-14 21:00N 38°31' W 074°37'0 0.0
2017-Oct-14 19:18N 38°31' W 074°37'0 0.0
2017-Oct-13 04:36N 38°31' W 074°37'0 0.1
2017-Oct-13 04:27N 38°31' W 074°37'0 0.0
2017-Oct-13 03:39N 38°31' W 074°37'0 0.0
2017-Oct-13 03:27N 38°31' W 074°37'0 0.0
2017-Oct-13 02:49N 38°31' W 074°37'0 0.0
2017-Oct-12 23:12N 38°31' W 074°37'0 0.0
2017-Oct-12 01:03N 38°31' W 074°37'0 0.0
2017-Oct-12 00:09N 38°31' W 074°37'0 0.0
2017-Oct-11 23:54N 38°31' W 074°37'0 0.0
2017-Oct-11 23:30N 38°31' W 074°37'0 0.1
2017-Oct-11 22:51N 38°31' W 074°37'0 0.0
2017-Oct-11 22:24N 38°31' W 074°37'0 0.0
2017-Oct-11 22:00N 38°31' W 074°37'0 0.1
2017-Oct-11 21:15N 38°31' W 074°37'0 0.1
2017-Oct-11 20:57N 38°31' W 074°37'0 0.0
2017-Oct-10 23:45N 38°31' W 074°36'0 0.0
2017-Oct-10 23:12N 38°31' W 074°36'0 0.0
2017-Oct-10 14:36N 38°31' W 074°36'0 0.1
2017-Oct-10 14:00N 38°31' W 074°36'0 0.0
2017-Oct-10 13:27N 38°31' W 074°36'0 0.0
2017-Oct-10 12:57N 38°31' W 074°36'0 0.0
2017-Oct-10 12:30N 38°31' W 074°36'0 0.0
2017-Oct-10 11:45N 38°31' W 074°36'0 0.1
2017-Oct-10 11:09N 38°31' W 074°36'0 0.0
2017-Oct-10 10:51N 38°31' W 074°36'0 0.1
2017-Oct-10 10:21N 38°31' W 074°36'0 0.2
2017-Oct-10 09:51N 38°31' W 074°36'0 0.2
2017-Oct-10 09:30N 38°31' W 074°36'0 0.1
2017-Oct-10 08:30N 38°31' W 074°36'0 0.0
2017-Oct-10 07:51N 38°31' W 074°36'0 0.0
2017-Oct-10 07:30N 38°31' W 074°36'0 0.0
2017-Oct-10 06:39N 38°31' W 074°36'0 0.0
2017-Oct-09 15:30N 38°32' W 074°36'0 0.0
2017-Oct-09 14:54N 38°32' W 074°36'0 0.0
2017-Oct-09 08:00N 38°31' W 074°36'0 0.0
2017-Oct-09 07:27N 38°31' W 074°36'0 0.0
2017-Oct-09 07:00N 38°31' W 074°36'0 0.0
2017-Oct-09 06:30N 38°31' W 074°36'0 0.0
2017-Oct-09 06:00N 38°31' W 074°36'0 0.1
2017-Oct-09 05:27N 38°31' W 074°36'0 0.1
2017-Oct-09 04:51N 38°31' W 074°36'  
Track history (hours):
 
Tides and Currents Weather Stations Pressure Air Temp Water Temp Dewpoint Dewpoint Depression Visibility Wind Speed Wind Dir Waves Ship Positions

Minerva Astra

Last reported at 2017-Oct-18 09:29 UTC. Time now 2017-Oct-18 09:32 UTC.
Position N 38°24' W 074°28'.

Length 248 m; draft 12 m.

Type: Ship (hazmat cat A). MMSI: 256703000.

Date/timePositionNaut miles runAvg speedWind from/ knotsBaromVisibWave heightAir tempDewpointWater temp
2017-Oct-18 09:29N 38°24' W 074°28'1 2.0
2017-Oct-18 09:01N 38°23' W 074°28'2 3.7
2017-Oct-18 08:30N 38°21' W 074°27'1 2.3
2017-Oct-18 08:01N 38°20' W 074°27'1 1.1
2017-Oct-18 06:56N 38°21' W 074°26'1 0.9
2017-Oct-18 05:55N 38°22' W 074°25'20 1.5
2017-Oct-17 16:35N 38°42' W 074°24'0 0.5
2017-Oct-17 16:05N 38°42' W 074°24'1 2.5
2017-Oct-17 15:50N 38°41' W 074°24'3 5.8
2017-Oct-17 15:19N 38°39' W 074°27'5 9.8
2017-Oct-17 14:49N 38°36' W 074°31'3 9.7
2017-Oct-17 14:30N 38°33' W 074°34'3 0.1
2017-Oct-16 04:31N 38°31' W 074°37'0 0.0
2017-Oct-16 03:06N 38°31' W 074°37'0 0.0
2017-Oct-16 02:12N 38°31' W 074°36'0 0.0
2017-Oct-15 16:42N 38°31' W 074°37'0 0.1
2017-Oct-15 15:36N 38°31' W 074°37'0 0.2
2017-Oct-15 15:12N 38°31' W 074°37'0 0.1
2017-Oct-15 14:42N 38°31' W 074°37'0 0.0
2017-Oct-15 14:00N 38°31' W 074°37'0 0.1
2017-Oct-15 13:30N 38°31' W 074°37'0 0.0
2017-Oct-15 12:48N 38°31' W 074°37'0 0.2
2017-Oct-15 12:30N 38°31' W 074°37'0 0.0
2017-Oct-15 06:15N 38°31' W 074°37'0 0.0
2017-Oct-14 21:21N 38°31' W 074°37'0 0.0
2017-Oct-14 21:00N 38°31' W 074°37'0 0.0
2017-Oct-14 19:18N 38°31' W 074°37'0 0.0
2017-Oct-13 04:36N 38°31' W 074°37'0 0.1
2017-Oct-13 04:27N 38°31' W 074°37'0 0.0
2017-Oct-13 03:39N 38°31' W 074°37'0 0.0
2017-Oct-13 03:27N 38°31' W 074°37'0 0.0
2017-Oct-13 02:49N 38°31' W 074°37'0 0.0
2017-Oct-12 23:12N 38°31' W 074°37'0 0.0
2017-Oct-12 01:03N 38°31' W 074°37'0 0.0
2017-Oct-12 00:09N 38°31' W 074°37'0 0.0
2017-Oct-11 23:54N 38°31' W 074°37'0 0.0
2017-Oct-11 23:30N 38°31' W 074°37'0 0.1
2017-Oct-11 22:51N 38°31' W 074°37'0 0.0
2017-Oct-11 22:24N 38°31' W 074°37'0 0.0
2017-Oct-11 22:00N 38°31' W 074°37'0 0.1
2017-Oct-11 21:15N 38°31' W 074°37'0 0.1
2017-Oct-11 20:57N 38°31' W 074°37'0 0.0
2017-Oct-10 23:45N 38°31' W 074°36'0 0.0
2017-Oct-10 23:12N 38°31' W 074°36'0 0.0
2017-Oct-10 14:36N 38°31' W 074°36'0 0.1
2017-Oct-10 14:00N 38°31' W 074°36'0 0.0
2017-Oct-10 13:27N 38°31' W 074°36'0 0.0
2017-Oct-10 12:57N 38°31' W 074°36'0 0.0
2017-Oct-10 12:30N 38°31' W 074°36'0 0.0
2017-Oct-10 11:45N 38°31' W 074°36'0 0.1
2017-Oct-10 11:09N 38°31' W 074°36'0 0.0
2017-Oct-10 10:51N 38°31' W 074°36'0 0.1
2017-Oct-10 10:21N 38°31' W 074°36'0 0.2
2017-Oct-10 09:51N 38°31' W 074°36'0 0.2
2017-Oct-10 09:30N 38°31' W 074°36'0 0.1
2017-Oct-10 08:30N 38°31' W 074°36'0 0.0
2017-Oct-10 07:51N 38°31' W 074°36'0 0.0
2017-Oct-10 07:30N 38°31' W 074°36'0 0.0
2017-Oct-10 06:39N 38°31' W 074°36'0 0.0
2017-Oct-09 15:30N 38°32' W 074°36'0 0.0
2017-Oct-09 14:54N 38°32' W 074°36'0 0.0
2017-Oct-09 08:00N 38°31' W 074°36'0 0.0
2017-Oct-09 07:27N 38°31' W 074°36'0 0.0
2017-Oct-09 07:00N 38°31' W 074°36'0 0.0
2017-Oct-09 06:30N 38°31' W 074°36'0 0.0
2017-Oct-09 06:00N 38°31' W 074°36'0 0.1
2017-Oct-09 05:27N 38°31' W 074°36'0 0.1
2017-Oct-09 04:51N 38°31' W 074°36'  

Dump ship's entire track history